sensor_id;sensor_type;location;lat;lon;timestamp;pressure;altitude;pressure_sealevel;temperature;humidity
63954;BME280;50128;52.094;5.232;2022-12-24T00:00:49;100419.0;;;10.51;100.0
63954;BME280;50128;52.094;5.232;2022-12-24T00:02:30;100416.0;;;10.47;100.0
63954;BME280;50128;52.094;5.232;2022-12-24T00:05:42;100416.0;;;10.5;100.0
63954;BME280;50128;52.094;5.232;2022-12-24T00:07:19;100414.0;;;10.44;100.0
63954;BME280;50128;52.094;5.232;2022-12-24T00:08:55;100430.0;;;10.43;100.0
63954;BME280;50128;52.094;5.232;2022-12-24T00:12:08;100423.0;;;10.43;100.0
63954;BME280;50128;52.094;5.232;2022-12-24T00:13:44;100427.0;;;10.46;100.0
63954;BME280;50128;52.094;5.232;2022-12-24T00:15:22;100427.0;;;10.44;100.0
63954;BME280;50128;52.094;5.232;2022-12-24T00:16:58;100436.0;;;10.5;100.0
63954;BME280;50128;52.094;5.232;2022-12-24T00:20:10;100439.0;;;10.43;100.0
63954;BME280;50128;52.094;5.232;2022-12-24T00:21:47;100435.0;;;10.45;100.0
63954;BME280;50128;52.094;5.232;2022-12-24T00:23:22;100441.0;;;10.44;100.0
63954;BME280;50128;52.094;5.232;2022-12-24T00:26:36;100441.0;;;10.48;100.0
63954;BME280;50128;52.094;5.232;2022-12-24T00:28:13;100438.0;;;10.47;100.0
63954;BME280;50128;52.094;5.232;2022-12-24T00:29:50;100444.0;;;10.5;100.0
63954;BME280;50128;52.094;5.232;2022-12-24T00:33:03;100443.0;;;10.43;100.0
63954;BME280;50128;52.094;5.232;2022-12-24T00:34:40;100455.0;;;10.35;100.0
63954;BME280;50128;52.094;5.232;2022-12-24T00:36:17;100457.0;;;10.36;100.0
63954;BME280;50128;52.094;5.232;2022-12-24T00:37:54;100460.0;;;10.4;100.0
63954;BME280;50128;52.094;5.232;2022-12-24T00:41:07;100464.0;;;10.41;100.0
63954;BME280;50128;52.094;5.232;2022-12-24T00:42:45;100466.0;;;10.37;100.0
63954;BME280;50128;52.094;5.232;2022-12-24T00:44:21;100469.0;;;10.41;100.0
63954;BME280;50128;52.094;5.232;2022-12-24T00:47:35;100474.0;;;10.35;100.0
63954;BME280;50128;52.094;5.232;2022-12-24T00:49:11;100472.0;;;10.34;100.0
63954;BME280;50128;52.094;5.232;2022-12-24T00:50:50;100474.0;;;10.28;100.0
63954;BME280;50128;52.094;5.232;2022-12-24T00:54:02;100480.0;;;10.29;100.0
63954;BME280;50128;52.094;5.232;2022-12-24T00:55:39;100481.0;;;10.28;100.0
63954;BME280;50128;52.094;5.232;2022-12-24T00:57:15;100487.0;;;10.3;100.0
63954;BME280;50128;52.094;5.232;2022-12-24T00:58:52;100484.0;;;10.26;100.0
63954;BME280;50128;52.094;5.232;2022-12-24T01:02:05;100489.0;;;10.25;100.0
63954;BME280;50128;52.094;5.232;2022-12-24T01:03:41;100496.0;;;10.21;100.0
63954;BME280;50128;52.094;5.232;2022-12-24T01:05:19;100496.0;;;10.09;100.0
63954;BME280;50128;52.094;5.232;2022-12-24T01:08:31;100505.0;;;10.01;100.0
63954;BME280;50128;52.094;5.232;2022-12-24T01:10:09;100507.0;;;9.96;100.0
63954;BME280;50128;52.094;5.232;2022-12-24T01:11:47;100506.0;;;9.89;100.0
63954;BME280;50128;52.094;5.232;2022-12-24T01:13:24;100511.0;;;9.99;100.0
63954;BME280;50128;52.094;5.232;2022-12-24T01:16:37;100519.0;;;9.99;100.0
63954;BME280;50128;52.094;5.232;2022-12-24T01:18:14;100520.0;;;9.86;100.0
63954;BME280;50128;52.094;5.232;2022-12-24T01:19:51;100527.0;;;9.85;100.0
63954;BME280;50128;52.094;5.232;2022-12-24T01:23:04;100530.0;;;9.81;100.0
63954;BME280;50128;52.094;5.232;2022-12-24T01:24:40;100537.0;;;9.88;100.0
63954;BME280;50128;52.094;5.232;2022-12-24T01:26:17;100533.0;;;9.81;100.0
63954;BME280;50128;52.094;5.232;2022-12-24T01:29:29;100549.0;;;9.75;100.0
63954;BME280;50128;52.094;5.232;2022-12-24T01:31:09;100542.0;;;9.75;100.0
63954;BME280;50128;52.094;5.232;2022-12-24T01:32:46;100538.0;;;9.75;100.0
63954;BME280;50128;52.094;5.232;2022-12-24T01:34:22;100546.0;;;9.69;100.0
63954;BME280;50128;52.094;5.232;2022-12-24T01:37:38;100552.0;;;9.68;100.0
63954;BME280;50128;52.094;5.232;2022-12-24T01:39:15;100555.0;;;9.53;100.0
63954;BME280;50128;52.094;5.232;2022-12-24T01:40:52;100552.0;;;9.5;100.0
63954;BME280;50128;52.094;5.232;2022-12-24T01:44:22;100553.0;;;9.47;100.0
63954;BME280;50128;52.094;5.232;2022-12-24T01:46:00;100556.0;;;9.4;100.0
63954;BME280;50128;52.094;5.232;2022-12-24T01:47:38;100564.0;;;9.38;100.0
63954;BME280;50128;52.094;5.232;2022-12-24T01:49:15;100563.0;;;9.4;100.0
63954;BME280;50128;52.094;5.232;2022-12-24T01:52:35;100564.0;;;9.38;100.0
63954;BME280;50128;52.094;5.232;2022-12-24T01:54:14;100563.0;;;9.39;100.0
63954;BME280;50128;52.094;5.232;2022-12-24T01:55:53;100569.0;;;9.34;100.0
63954;BME280;50128;52.094;5.232;2022-12-24T01:57:35;100571.0;;;9.25;100.0
63954;BME280;50128;52.094;5.232;2022-12-24T02:00:53;100572.0;;;9.24;100.0
63954;BME280;50128;52.094;5.232;2022-12-24T02:02:29;100574.0;;;9.23;100.0
63954;BME280;50128;52.094;5.232;2022-12-24T02:04:11;100583.0;;;9.32;100.0
63954;BME280;50128;52.094;5.232;2022-12-24T02:05:54;100582.0;;;9.22;100.0
63954;BME280;50128;52.094;5.232;2022-12-24T02:09:09;100586.0;;;9.14;100.0
63954;BME280;50128;52.094;5.232;2022-12-24T02:10:46;100589.0;;;9.08;100.0
63954;BME280;50128;52.094;5.232;2022-12-24T02:12:24;100591.0;;;9.06;100.0
63954;BME280;50128;52.094;5.232;2022-12-24T02:15:49;100595.0;;;9.02;100.0
63954;BME280;50128;52.094;5.232;2022-12-24T02:17:34;100593.0;;;9.11;100.0
63954;BME280;50128;52.094;5.232;2022-12-24T02:19:32;100599.0;;;9.06;100.0
63954;BME280;50128;52.094;5.232;2022-12-24T02:21:51;100605.0;;;9.02;100.0
63954;BME280;50128;52.094;5.232;2022-12-24T02:23:47;100607.0;;;8.93;100.0
63954;BME280;50128;52.094;5.232;2022-12-24T02:27:16;100611.0;;;8.9;100.0
63954;BME280;50128;52.094;5.232;2022-12-24T02:29:13;100612.0;;;8.89;100.0
63954;BME280;50128;52.094;5.232;2022-12-24T02:30:59;100616.0;;;8.89;100.0
63954;BME280;50128;52.094;5.232;2022-12-24T02:35:36;100612.0;;;9.02;100.0
63954;BME280;50128;52.094;5.232;2022-12-24T02:37:19;100613.0;;;9.01;100.0
63954;BME280;50128;52.094;5.232;2022-12-24T02:40:45;100613.0;;;8.9;100.0
63954;BME280;50128;52.094;5.232;2022-12-24T02:42:27;100611.0;;;8.91;100.0
63954;BME280;50128;52.094;5.232;2022-12-24T02:44:06;100611.0;;;8.83;100.0
63954;BME280;50128;52.094;5.232;2022-12-24T02:45:48;100612.0;;;8.86;100.0
63954;BME280;50128;52.094;5.232;2022-12-24T02:49:04;100616.0;;;8.89;100.0
63954;BME280;50128;52.094;5.232;2022-12-24T02:50:55;100620.0;;;8.96;100.0
63954;BME280;50128;52.094;5.232;2022-12-24T02:52:33;100622.0;;;8.88;100.0
63954;BME280;50128;52.094;5.232;2022-12-24T02:54:11;100623.0;;;8.71;100.0
63954;BME280;50128;52.094;5.232;2022-12-24T02:58:10;100624.0;;;8.74;100.0
63954;BME280;50128;52.094;5.232;2022-12-24T02:59:59;100630.0;;;8.8;100.0
63954;BME280;50128;52.094;5.232;2022-12-24T03:01:49;100633.0;;;8.75;100.0
63954;BME280;50128;52.094;5.232;2022-12-24T03:03:36;100632.0;;;8.76;100.0
63954;BME280;50128;52.094;5.232;2022-12-24T03:05:19;100630.0;;;8.73;100.0
63954;BME280;50128;52.094;5.232;2022-12-24T03:07:06;100628.0;;;8.72;100.0
63954;BME280;50128;52.094;5.232;2022-12-24T03:08:51;100630.0;;;8.74;100.0
63954;BME280;50128;52.094;5.232;2022-12-24T03:12:20;100632.0;;;8.86;100.0
63954;BME280;50128;52.094;5.232;2022-12-24T03:14:00;100633.0;;;8.97;100.0
63954;BME280;50128;52.094;5.232;2022-12-24T03:15:38;100632.0;;;8.86;100.0
63954;BME280;50128;52.094;5.232;2022-12-24T03:17:17;100626.0;;;8.83;100.0
63954;BME280;50128;52.094;5.232;2022-12-24T03:18:55;100630.0;;;8.88;100.0
63954;BME280;50128;52.094;5.232;2022-12-24T03:22:17;100635.0;;;8.91;100.0
63954;BME280;50128;52.094;5.232;2022-12-24T03:23:53;100641.0;;;8.98;100.0
63954;BME280;50128;52.094;5.232;2022-12-24T03:25:32;100640.0;;;9.0;100.0
63954;BME280;50128;52.094;5.232;2022-12-24T03:28:49;100647.0;;;8.98;100.0
63954;BME280;50128;52.094;5.232;2022-12-24T03:30:25;100651.0;;;9.06;100.0
63954;BME280;50128;52.094;5.232;2022-12-24T03:32:03;100648.0;;;9.1;100.0
63954;BME280;50128;52.094;5.232;2022-12-24T03:33:39;100652.0;;;9.11;100.0
63954;BME280;50128;52.094;5.232;2022-12-24T03:36:53;100655.0;;;9.19;100.0
63954;BME280;50128;52.094;5.232;2022-12-24T03:38:29;100651.0;;;9.22;100.0
63954;BME280;50128;52.094;5.232;2022-12-24T03:40:07;100655.0;;;9.32;100.0
63954;BME280;50128;52.094;5.232;2022-12-24T03:43:20;100660.0;;;9.4;100.0
63954;BME280;50128;52.094;5.232;2022-12-24T03:44:56;100665.0;;;9.27;100.0
63954;BME280;50128;52.094;5.232;2022-12-24T03:46:32;100656.0;;;9.33;100.0
63954;BME280;50128;52.094;5.232;2022-12-24T03:49:45;100661.0;;;9.39;100.0
63954;BME280;50128;52.094;5.232;2022-12-24T03:51:23;100661.0;;;9.42;100.0
63954;BME280;50128;52.094;5.232;2022-12-24T03:53:00;100655.0;;;9.52;100.0
63954;BME280;50128;52.094;5.232;2022-12-24T03:54:36;100655.0;;;9.48;100.0
63954;BME280;50128;52.094;5.232;2022-12-24T03:57:50;100659.0;;;9.5;100.0
63954;BME280;50128;52.094;5.232;2022-12-24T03:59:26;100669.0;;;9.52;100.0
63954;BME280;50128;52.094;5.232;2022-12-24T04:02:38;100660.0;;;9.48;100.0
63954;BME280;50128;52.094;5.232;2022-12-24T04:04:15;100658.0;;;9.36;100.0
63954;BME280;50128;52.094;5.232;2022-12-24T04:06:00;100664.0;;;9.47;100.0
63954;BME280;50128;52.094;5.232;2022-12-24T04:07:37;100673.0;;;9.56;100.0
63954;BME280;50128;52.094;5.232;2022-12-24T04:09:13;100674.0;;;9.59;100.0
63954;BME280;50128;52.094;5.232;2022-12-24T04:12:25;100670.0;;;9.59;100.0
63954;BME280;50128;52.094;5.232;2022-12-24T04:14:02;100672.0;;;9.73;100.0
63954;BME280;50128;52.094;5.232;2022-12-24T04:15:38;100669.0;;;9.72;100.0
63954;BME280;50128;52.094;5.232;2022-12-24T04:18:51;100665.0;;;9.67;100.0
63954;BME280;50128;52.094;5.232;2022-12-24T04:20:27;100666.0;;;9.69;100.0
63954;BME280;50128;52.094;5.232;2022-12-24T04:22:04;100673.0;;;9.73;100.0
63954;BME280;50128;52.094;5.232;2022-12-24T04:25:17;100677.0;;;9.76;100.0
63954;BME280;50128;52.094;5.232;2022-12-24T04:26:53;100678.0;;;9.75;100.0
63954;BME280;50128;52.094;5.232;2022-12-24T04:28:30;100684.0;;;9.81;100.0
63954;BME280;50128;52.094;5.232;2022-12-24T04:30:08;100682.0;;;9.74;100.0
63954;BME280;50128;52.094;5.232;2022-12-24T04:33:20;100682.0;;;9.74;100.0
63954;BME280;50128;52.094;5.232;2022-12-24T04:34:56;100687.0;;;9.77;100.0
63954;BME280;50128;52.094;5.232;2022-12-24T04:36:32;100691.0;;;9.69;100.0
63954;BME280;50128;52.094;5.232;2022-12-24T04:39:45;100693.0;;;9.72;100.0
63954;BME280;50128;52.094;5.232;2022-12-24T04:41:22;100695.0;;;9.68;100.0
63954;BME280;50128;52.094;5.232;2022-12-24T04:42:59;100693.0;;;9.76;100.0
63954;BME280;50128;52.094;5.232;2022-12-24T04:46:14;100696.0;;;9.74;100.0
63954;BME280;50128;52.094;5.232;2022-12-24T04:47:51;100697.0;;;9.77;100.0
63954;BME280;50128;52.094;5.232;2022-12-24T04:49:27;100695.0;;;9.8;100.0
63954;BME280;50128;52.094;5.232;2022-12-24T04:51:05;100694.0;;;9.75;100.0
63954;BME280;50128;52.094;5.232;2022-12-24T04:54:18;100692.0;;;9.83;100.0
63954;BME280;50128;52.094;5.232;2022-12-24T04:55:54;100696.0;;;9.86;100.0
63954;BME280;50128;52.094;5.232;2022-12-24T04:57:31;100702.0;;;9.8;100.0
63954;BME280;50128;52.094;5.232;2022-12-24T05:00:44;100709.0;;;9.86;100.0
63954;BME280;50128;52.094;5.232;2022-12-24T05:02:20;100712.0;;;9.81;100.0
63954;BME280;50128;52.094;5.232;2022-12-24T05:03:57;100712.0;;;9.91;100.0
63954;BME280;50128;52.094;5.232;2022-12-24T05:07:09;100711.0;;;9.86;100.0
63954;BME280;50128;52.094;5.232;2022-12-24T05:08:46;100713.0;;;9.91;100.0
63954;BME280;50128;52.094;5.232;2022-12-24T05:10:22;100706.0;;;9.92;100.0
63954;BME280;50128;52.094;5.232;2022-12-24T05:11:58;100707.0;;;9.96;100.0
63954;BME280;50128;52.094;5.232;2022-12-24T05:15:10;100703.0;;;9.86;100.0
63954;BME280;50128;52.094;5.232;2022-12-24T05:16:47;100706.0;;;9.89;100.0
63954;BME280;50128;52.094;5.232;2022-12-24T05:18:24;100703.0;;;9.96;100.0
63954;BME280;50128;52.094;5.232;2022-12-24T05:21:36;100701.0;;;9.94;100.0
63954;BME280;50128;52.094;5.232;2022-12-24T05:23:15;100710.0;;;9.93;100.0
63954;BME280;50128;52.094;5.232;2022-12-24T05:24:52;100712.0;;;9.86;100.0
63954;BME280;50128;52.094;5.232;2022-12-24T05:28:09;100713.0;;;9.88;100.0
63954;BME280;50128;52.094;5.232;2022-12-24T05:29:45;100710.0;;;9.88;100.0
63954;BME280;50128;52.094;5.232;2022-12-24T05:31:22;100712.0;;;9.89;100.0
63954;BME280;50128;52.094;5.232;2022-12-24T05:33:00;100719.0;;;9.99;100.0
63954;BME280;50128;52.094;5.232;2022-12-24T05:36:13;100722.0;;;10.0;100.0
63954;BME280;50128;52.094;5.232;2022-12-24T05:37:49;100725.0;;;9.88;100.0
63954;BME280;50128;52.094;5.232;2022-12-24T05:39:25;100728.0;;;9.81;100.0
63954;BME280;50128;52.094;5.232;2022-12-24T05:42:39;100727.0;;;9.86;100.0
63954;BME280;50128;52.094;5.232;2022-12-24T05:44:15;100720.0;;;9.89;100.0
63954;BME280;50128;52.094;5.232;2022-12-24T05:45:56;100720.0;;;9.93;100.0
63954;BME280;50128;52.094;5.232;2022-12-24T05:47:33;100725.0;;;9.94;100.0
63954;BME280;50128;52.094;5.232;2022-12-24T05:50:48;100719.0;;;10.02;100.0
63954;BME280;50128;52.094;5.232;2022-12-24T05:52:24;100730.0;;;9.88;100.0
63954;BME280;50128;52.094;5.232;2022-12-24T05:54:00;100725.0;;;9.98;100.0
63954;BME280;50128;52.094;5.232;2022-12-24T05:57:12;100728.0;;;9.98;100.0
63954;BME280;50128;52.094;5.232;2022-12-24T05:58:49;100730.0;;;9.96;100.0
63954;BME280;50128;52.094;5.232;2022-12-24T06:00:26;100735.0;;;9.98;100.0
63954;BME280;50128;52.094;5.232;2022-12-24T06:03:38;100739.0;;;9.97;100.0
63954;BME280;50128;52.094;5.232;2022-12-24T06:05:15;100738.0;;;9.96;100.0
63954;BME280;50128;52.094;5.232;2022-12-24T06:06:51;100740.0;;;9.98;100.0
63954;BME280;50128;52.094;5.232;2022-12-24T06:08:28;100734.0;;;9.97;100.0
63954;BME280;50128;52.094;5.232;2022-12-24T06:11:43;100738.0;;;9.98;100.0
63954;BME280;50128;52.094;5.232;2022-12-24T06:13:19;100742.0;;;9.91;100.0
63954;BME280;50128;52.094;5.232;2022-12-24T06:14:55;100744.0;;;9.89;100.0
63954;BME280;50128;52.094;5.232;2022-12-24T06:18:07;100746.0;;;9.96;100.0
63954;BME280;50128;52.094;5.232;2022-12-24T06:19:44;100749.0;;;10.01;100.0
63954;BME280;50128;52.094;5.232;2022-12-24T06:21:20;100752.0;;;9.92;100.0
63954;BME280;50128;52.094;5.232;2022-12-24T06:24:33;100752.0;;;9.96;100.0
63954;BME280;50128;52.094;5.232;2022-12-24T06:26:11;100748.0;;;9.99;100.0
63954;BME280;50128;52.094;5.232;2022-12-24T06:27:48;100755.0;;;9.94;100.0
63954;BME280;50128;52.094;5.232;2022-12-24T06:29:24;100757.0;;;9.96;100.0
63954;BME280;50128;52.094;5.232;2022-12-24T06:32:37;100767.0;;;9.96;100.0
63954;BME280;50128;52.094;5.232;2022-12-24T06:34:14;100776.0;;;9.97;100.0
63954;BME280;50128;52.094;5.232;2022-12-24T06:37:26;100776.0;;;9.94;100.0
63954;BME280;50128;52.094;5.232;2022-12-24T06:39:02;100766.0;;;9.92;100.0
63954;BME280;50128;52.094;5.232;2022-12-24T06:40:39;100769.0;;;9.97;100.0
63954;BME280;50128;52.094;5.232;2022-12-24T06:42:16;100774.0;;;10.05;100.0
63954;BME280;50128;52.094;5.232;2022-12-24T06:45:29;100772.0;;;9.9;100.0
63954;BME280;50128;52.094;5.232;2022-12-24T06:47:05;100771.0;;;9.94;100.0
63954;BME280;50128;52.094;5.232;2022-12-24T06:48:42;100770.0;;;10.01;100.0
63954;BME280;50128;52.094;5.232;2022-12-24T06:50:18;100786.0;;;10.01;100.0
63954;BME280;50128;52.094;5.232;2022-12-24T06:53:32;100783.0;;;10.03;100.0
63954;BME280;50128;52.094;5.232;2022-12-24T06:55:08;100778.0;;;10.05;100.0
63954;BME280;50128;52.094;5.232;2022-12-24T06:56:45;100765.0;;;10.05;100.0
63954;BME280;50128;52.094;5.232;2022-12-24T06:59:57;100774.0;;;9.97;100.0
63954;BME280;50128;52.094;5.232;2022-12-24T07:01:34;100775.0;;;9.98;100.0
63954;BME280;50128;52.094;5.232;2022-12-24T07:03:11;100780.0;;;10.01;100.0
63954;BME280;50128;52.094;5.232;2022-12-24T07:06:25;100783.0;;;10.05;100.0
63954;BME280;50128;52.094;5.232;2022-12-24T07:08:02;100786.0;;;10.07;100.0
63954;BME280;50128;52.094;5.232;2022-12-24T07:09:39;100790.0;;;10.05;100.0
63954;BME280;50128;52.094;5.232;2022-12-24T07:11:17;100789.0;;;9.89;100.0
63954;BME280;50128;52.094;5.232;2022-12-24T07:14:29;100786.0;;;10.06;100.0
63954;BME280;50128;52.094;5.232;2022-12-24T07:16:05;100792.0;;;9.94;100.0
63954;BME280;50128;52.094;5.232;2022-12-24T07:17:43;100794.0;;;9.86;100.0
63954;BME280;50128;52.094;5.232;2022-12-24T07:20:55;100798.0;;;9.84;100.0
63954;BME280;50128;52.094;5.232;2022-12-24T07:22:32;100798.0;;;9.84;100.0
63954;BME280;50128;52.094;5.232;2022-12-24T07:24:08;100805.0;;;9.82;100.0
63954;BME280;50128;52.094;5.232;2022-12-24T07:27:21;100808.0;;;9.81;100.0
63954;BME280;50128;52.094;5.232;2022-12-24T07:28:58;100813.0;;;9.84;100.0
63954;BME280;50128;52.094;5.232;2022-12-24T07:30:34;100820.0;;;9.76;100.0
63954;BME280;50128;52.094;5.232;2022-12-24T07:32:10;100826.0;;;9.77;100.0
63954;BME280;50128;52.094;5.232;2022-12-24T07:35:22;100824.0;;;9.73;100.0
63954;BME280;50128;52.094;5.232;2022-12-24T07:36:59;100831.0;;;9.85;100.0
63954;BME280;50128;52.094;5.232;2022-12-24T07:38:36;100841.0;;;9.92;100.0
63954;BME280;50128;52.094;5.232;2022-12-24T07:41:49;100846.0;;;9.88;100.0
63954;BME280;50128;52.094;5.232;2022-12-24T07:43:25;100845.0;;;9.84;100.0
63954;BME280;50128;52.094;5.232;2022-12-24T07:45:03;100845.0;;;9.89;100.0
63954;BME280;50128;52.094;5.232;2022-12-24T07:46:40;100848.0;;;9.78;100.0
63954;BME280;50128;52.094;5.232;2022-12-24T07:49:53;100853.0;;;9.78;100.0
63954;BME280;50128;52.094;5.232;2022-12-24T07:51:29;100870.0;;;9.69;100.0
63954;BME280;50128;52.094;5.232;2022-12-24T07:53:06;100874.0;;;9.73;100.0
63954;BME280;50128;52.094;5.232;2022-12-24T07:56:19;100875.0;;;9.76;100.0
63954;BME280;50128;52.094;5.232;2022-12-24T07:57:55;100884.0;;;9.75;100.0
63954;BME280;50128;52.094;5.232;2022-12-24T07:59:31;100883.0;;;9.65;100.0
63954;BME280;50128;52.094;5.232;2022-12-24T08:02:46;100888.0;;;9.74;100.0
63954;BME280;50128;52.094;5.232;2022-12-24T08:04:23;100896.0;;;9.86;100.0
63954;BME280;50128;52.094;5.232;2022-12-24T08:05:59;100892.0;;;9.82;100.0
63954;BME280;50128;52.094;5.232;2022-12-24T08:07:36;100897.0;;;9.76;100.0
63954;BME280;50128;52.094;5.232;2022-12-24T08:10:49;100905.0;;;9.85;100.0
63954;BME280;50128;52.094;5.232;2022-12-24T08:12:26;100901.0;;;9.78;100.0
63954;BME280;50128;52.094;5.232;2022-12-24T08:14:02;100906.0;;;9.72;100.0
63954;BME280;50128;52.094;5.232;2022-12-24T08:17:14;100917.0;;;9.81;100.0
63954;BME280;50128;52.094;5.232;2022-12-24T08:18:50;100911.0;;;9.88;100.0
63954;BME280;50128;52.094;5.232;2022-12-24T08:20:27;100923.0;;;9.84;100.0
63954;BME280;50128;52.094;5.232;2022-12-24T08:23:39;100922.0;;;9.88;100.0
63954;BME280;50128;52.094;5.232;2022-12-24T08:25:16;100924.0;;;9.84;100.0
63954;BME280;50128;52.094;5.232;2022-12-24T08:26:52;100924.0;;;9.82;100.0
63954;BME280;50128;52.094;5.232;2022-12-24T08:30:06;100931.0;;;9.91;100.0
63954;BME280;50128;52.094;5.232;2022-12-24T08:31:43;100932.0;;;9.82;100.0
63954;BME280;50128;52.094;5.232;2022-12-24T08:33:19;100936.0;;;9.9;100.0
63954;BME280;50128;52.094;5.232;2022-12-24T08:36:31;100935.0;;;10.02;100.0
63954;BME280;50128;52.094;5.232;2022-12-24T08:38:07;100935.0;;;10.0;100.0
63954;BME280;50128;52.094;5.232;2022-12-24T08:39:44;100941.0;;;10.0;100.0
63954;BME280;50128;52.094;5.232;2022-12-24T08:41:20;100939.0;;;10.01;100.0
63954;BME280;50128;52.094;5.232;2022-12-24T08:44:32;100946.0;;;10.07;100.0
63954;BME280;50128;52.094;5.232;2022-12-24T08:46:08;100952.0;;;10.08;100.0
63954;BME280;50128;52.094;5.232;2022-12-24T08:47:46;100955.0;;;10.14;100.0
63954;BME280;50128;52.094;5.232;2022-12-24T08:50:59;100955.0;;;10.11;100.0
63954;BME280;50128;52.094;5.232;2022-12-24T08:52:35;100955.0;;;10.15;100.0
63954;BME280;50128;52.094;5.232;2022-12-24T08:54:11;100959.0;;;10.1;100.0
63954;BME280;50128;52.094;5.232;2022-12-24T08:55:47;100960.0;;;10.11;100.0
63954;BME280;50128;52.094;5.232;2022-12-24T08:59:00;100969.0;;;10.1;100.0
63954;BME280;50128;52.094;5.232;2022-12-24T09:00:36;100967.0;;;10.17;100.0
63954;BME280;50128;52.094;5.232;2022-12-24T09:02:13;100971.0;;;10.21;100.0
63954;BME280;50128;52.094;5.232;2022-12-24T09:05:25;100976.0;;;10.15;100.0
63954;BME280;50128;52.094;5.232;2022-12-24T09:07:01;100973.0;;;10.21;100.0
63954;BME280;50128;52.094;5.232;2022-12-24T09:08:38;100978.0;;;10.19;100.0
63954;BME280;50128;52.094;5.232;2022-12-24T09:11:51;100985.0;;;10.26;100.0
63954;BME280;50128;52.094;5.232;2022-12-24T09:13:27;100993.0;;;10.21;100.0
63954;BME280;50128;52.094;5.232;2022-12-24T09:15:04;100996.0;;;10.29;100.0
63954;BME280;50128;52.094;5.232;2022-12-24T09:16:41;101002.0;;;10.28;100.0
63954;BME280;50128;52.094;5.232;2022-12-24T09:19:54;100994.0;;;10.37;100.0
63954;BME280;50128;52.094;5.232;2022-12-24T09:21:30;101003.0;;;10.32;100.0
63954;BME280;50128;52.094;5.232;2022-12-24T09:23:06;101003.0;;;10.33;100.0
63954;BME280;50128;52.094;5.232;2022-12-24T09:26:20;101009.0;;;10.39;100.0
63954;BME280;50128;52.094;5.232;2022-12-24T09:27:58;101010.0;;;10.38;100.0
63954;BME280;50128;52.094;5.232;2022-12-24T09:29:34;101010.0;;;10.35;100.0
63954;BME280;50128;52.094;5.232;2022-12-24T09:32:49;101009.0;;;10.43;100.0
63954;BME280;50128;52.094;5.232;2022-12-24T09:34:26;101015.0;;;10.48;100.0
63954;BME280;50128;52.094;5.232;2022-12-24T09:36:03;101019.0;;;10.53;100.0
63954;BME280;50128;52.094;5.232;2022-12-24T09:37:40;101020.0;;;10.45;100.0
63954;BME280;50128;52.094;5.232;2022-12-24T09:40:53;101024.0;;;10.52;100.0
63954;BME280;50128;52.094;5.232;2022-12-24T09:42:40;101027.0;;;10.55;100.0
63954;BME280;50128;52.094;5.232;2022-12-24T09:44:33;101030.0;;;10.54;100.0
63954;BME280;50128;52.094;5.232;2022-12-24T09:46:19;101035.0;;;10.57;100.0
63954;BME280;50128;52.094;5.232;2022-12-24T09:49:42;101043.0;;;10.58;100.0
63954;BME280;50128;52.094;5.232;2022-12-24T09:51:27;101042.0;;;10.48;100.0
63954;BME280;50128;52.094;5.232;2022-12-24T09:53:21;101041.0;;;10.51;100.0
63954;BME280;50128;52.094;5.232;2022-12-24T09:55:06;101040.0;;;10.52;100.0
63954;BME280;50128;52.094;5.232;2022-12-24T09:56:44;101044.0;;;10.49;100.0
63954;BME280;50128;52.094;5.232;2022-12-24T10:00:16;101046.0;;;10.48;100.0
63954;BME280;50128;52.094;5.232;2022-12-24T10:01:54;101048.0;;;10.53;100.0
63954;BME280;50128;52.094;5.232;2022-12-24T10:03:30;101053.0;;;10.58;100.0
63954;BME280;50128;52.094;5.232;2022-12-24T10:05:13;101045.0;;;10.54;100.0
63954;BME280;50128;52.094;5.232;2022-12-24T10:06:53;101055.0;;;10.51;100.0
63954;BME280;50128;52.094;5.232;2022-12-24T10:10:30;101055.0;;;10.59;100.0
63954;BME280;50128;52.094;5.232;2022-12-24T10:12:16;101057.0;;;10.6;100.0
63954;BME280;50128;52.094;5.232;2022-12-24T10:14:06;101053.0;;;10.55;100.0
63954;BME280;50128;52.094;5.232;2022-12-24T10:15:53;101057.0;;;10.55;100.0
63954;BME280;50128;52.094;5.232;2022-12-24T10:17:44;101060.0;;;10.59;100.0
63954;BME280;50128;52.094;5.232;2022-12-24T10:19:36;101056.0;;;10.57;100.0
63954;BME280;50128;52.094;5.232;2022-12-24T10:23:16;101059.0;;;10.63;100.0
63954;BME280;50128;52.094;5.232;2022-12-24T10:24:58;101063.0;;;10.6;100.0
63954;BME280;50128;52.094;5.232;2022-12-24T10:26:43;101063.0;;;10.62;100.0
63954;BME280;50128;52.094;5.232;2022-12-24T10:28:33;101063.0;;;10.67;100.0
63954;BME280;50128;52.094;5.232;2022-12-24T10:30:18;101057.0;;;10.69;100.0
63954;BME280;50128;52.094;5.232;2022-12-24T10:32:00;101060.0;;;10.66;100.0
63954;BME280;50128;52.094;5.232;2022-12-24T10:35:34;101061.0;;;10.73;100.0
63954;BME280;50128;52.094;5.232;2022-12-24T10:37:20;101061.0;;;10.77;100.0
63954;BME280;50128;52.094;5.232;2022-12-24T10:38:58;101066.0;;;10.62;100.0
63954;BME280;50128;52.094;5.232;2022-12-24T10:40:39;101070.0;;;10.65;100.0
63954;BME280;50128;52.094;5.232;2022-12-24T10:43:58;101071.0;;;10.73;100.0
63954;BME280;50128;52.094;5.232;2022-12-24T10:45:38;101071.0;;;10.82;100.0
63954;BME280;50128;52.094;5.232;2022-12-24T10:47:19;101074.0;;;10.92;100.0
63954;BME280;50128;52.094;5.232;2022-12-24T10:48:59;101077.0;;;10.89;100.0
63954;BME280;50128;52.094;5.232;2022-12-24T10:52:20;101073.0;;;10.99;100.0
63954;BME280;50128;52.094;5.232;2022-12-24T10:54:00;101069.0;;;11.1;100.0
63954;BME280;50128;52.094;5.232;2022-12-24T10:55:41;101071.0;;;11.08;100.0
63954;BME280;50128;52.094;5.232;2022-12-24T10:57:23;101072.0;;;11.02;100.0
63954;BME280;50128;52.094;5.232;2022-12-24T11:00:37;101077.0;;;11.15;100.0
63954;BME280;50128;52.094;5.232;2022-12-24T11:02:26;101074.0;;;11.11;100.0
63954;BME280;50128;52.094;5.232;2022-12-24T11:04:04;101084.0;;;11.04;100.0
63954;BME280;50128;52.094;5.232;2022-12-24T11:05:40;101082.0;;;11.08;100.0
63954;BME280;50128;52.094;5.232;2022-12-24T11:09:12;101080.0;;;11.14;100.0
63954;BME280;50128;52.094;5.232;2022-12-24T11:10:58;101077.0;;;11.08;100.0
63954;BME280;50128;52.094;5.232;2022-12-24T11:12:38;101074.0;;;11.09;100.0
63954;BME280;50128;52.094;5.232;2022-12-24T11:14:17;101076.0;;;11.09;100.0